KLCI/LCI METAR and TAF weather

Enter ICAO airport designator
Station Type Date Time Source
KLCI METAR 2022/01/29 10:56 UTC NOAA

KLCI 291056Z AUTO 06014KT 10SM OVC041 M08/M13 A2992 RMK AO2 SNB0958E14 SLP143 P0000 T10831133 FZRANO


Station Type Date Time Source
KLCI Decoded METAR 2022/01/29 10:56 UTC NOAA

Laconia, Laconia Municipal Airport, NH, United States (KLCI) 43-34N 071-25W
Jan 29, 2022 - 05:56 AM EST / 2022.01.29 1056 UTC
Wind: from the ENE (060 degrees) at 16 MPH (14 KT):0
Visibility: 10 mile(s):0
Sky conditions: overcast
Precipitation last hour: A trace
Temperature: 17.1 F (-8.3 C)
Windchill: 1 F (-17 C):1
Dew Point: 8.1 F (-13.3 C)
Relative Humidity: 67%
Pressure (altimeter): 29.92 in. Hg (1013 hPa)
ob: KLCI 291056Z AUTO 06014KT 10SM OVC041 M08/M13 A2992 RMK AO2 SNB0958E14 SLP143 P0000 T10831133 FZRANO
cycle: 11

Station Type Date Time Source
KLCI TAF UTC NOAA

Error!

Example: see airport list